createdAt,value
2022-08-12T00:00:36.344Z,8.13
2022-08-12T00:03:24.965Z,8.30
2022-08-12T00:06:11.413Z,8.13
2022-08-12T00:08:58.425Z,7.85
2022-08-12T00:11:46.179Z,8.85
2022-08-12T00:14:33.632Z,8.52
2022-08-12T00:17:23.117Z,8.00
2022-08-12T00:20:10.870Z,7.70
2022-08-12T00:22:59.689Z,8.25
2022-08-12T00:26:21.236Z,8.23
2022-08-12T00:29:13.517Z,7.88
2022-08-12T00:32:01.225Z,7.68
2022-08-12T00:34:50.953Z,8.00
2022-08-12T00:37:40.923Z,8.32
2022-08-12T00:40:29.841Z,7.30
2022-08-12T00:42:59.430Z,8.73
2022-08-12T00:45:47.542Z,8.43
2022-08-12T00:48:17.014Z,8.00
2022-08-12T00:50:47.673Z,7.88
2022-08-12T00:53:19.287Z,8.13
2022-08-12T00:58:20.651Z,7.80
2022-08-12T01:00:50.901Z,8.05
2022-08-12T01:03:22.385Z,8.38
2022-08-12T01:06:12.941Z,7.97
2022-08-12T01:08:59.653Z,7.45
2022-08-12T01:11:31.800Z,7.70
2022-08-12T01:14:01.946Z,8.30
2022-08-12T01:16:31.153Z,8.50
2022-08-12T01:19:03.709Z,8.40
2022-08-12T01:22:19.323Z,8.80
2022-08-12T01:25:18.367Z,8.10
2022-08-12T01:27:50.533Z,8.20
2022-08-12T01:30:20.351Z,8.40
2022-08-12T01:32:49.854Z,8.55
2022-08-12T01:35:17.960Z,8.00
2022-08-12T01:37:46.165Z,8.00
2022-08-12T01:40:33.473Z,8.02
2022-08-12T01:43:10.893Z,8.13
2022-08-12T01:45:59.586Z,8.32
2022-08-12T01:48:50.159Z,7.78
2022-08-12T01:52:15.938Z,7.95
2022-08-12T01:54:38.759Z,8.00
2022-08-12T01:57:16.744Z,8.50
2022-08-12T02:00:12.398Z,7.95
2022-08-12T02:02:47.470Z,8.55
2022-08-12T02:06:00.703Z,7.80
2022-08-12T02:09:02.640Z,7.90
2022-08-12T02:11:34.874Z,7.70
2022-08-12T02:14:12.539Z,8.07
2022-08-12T02:16:46.454Z,7.65
2022-08-12T02:19:49.658Z,7.55
2022-08-12T02:22:37.157Z,8.18
2022-08-12T02:25:09.734Z,8.30
2022-08-12T02:27:45.664Z,8.43
2022-08-12T02:30:23.793Z,8.25
2022-08-12T02:32:53.636Z,7.85
2022-08-12T02:35:35.895Z,8.52
2022-08-12T02:38:09.749Z,8.30
2022-08-12T02:40:40.486Z,8.63
2022-08-12T02:43:34.772Z,8.15
2022-08-12T02:46:08.305Z,8.05
2022-08-12T02:49:00.972Z,7.97
2022-08-12T02:51:35.639Z,8.07
2022-08-12T02:54:06.479Z,8.05
2022-08-12T02:59:12.079Z,8.10
2022-08-12T03:01:53.390Z,8.32
2022-08-12T03:04:32.428Z,8.10
2022-08-12T03:07:18.400Z,8.32
2022-08-12T03:10:04.358Z,8.55
2022-08-12T03:12:49.087Z,8.57
2022-08-12T03:15:22.231Z,8.43
2022-08-12T03:18:26.070Z,8.18
2022-08-12T03:20:51.568Z,7.83
2022-08-12T03:23:30.272Z,8.00
2022-08-12T03:26:00.750Z,8.07
2022-08-12T03:28:49.990Z,8.40
2022-08-12T03:31:24.611Z,8.75
2022-08-12T03:34:01.428Z,7.93
2022-08-12T03:36:36.975Z,8.55
2022-08-12T03:39:18.395Z,8.52
2022-08-12T03:42:00.716Z,8.30
2022-08-12T03:45:15.580Z,8.20
2022-08-12T03:48:01.770Z,8.13
2022-08-12T03:50:49.133Z,8.52
2022-08-12T03:53:47.316Z,8.27
2022-08-12T03:56:34.951Z,8.55
2022-08-12T03:59:23.713Z,8.52
2022-08-12T04:01:57.461Z,8.32
2022-08-12T04:04:34.207Z,8.38
2022-08-12T04:07:10.500Z,8.13
2022-08-12T04:09:39.896Z,8.23
2022-08-12T04:12:29.925Z,8.70
2022-08-12T04:15:01.767Z,8.38
2022-08-12T04:17:31.330Z,7.97
2022-08-12T04:19:59.803Z,8.02
2022-08-12T04:22:30.623Z,8.60
2022-08-12T04:25:03.303Z,8.10
2022-08-12T04:27:34.146Z,7.93
2022-08-12T04:32:28.457Z,8.65
2022-08-12T04:34:57.429Z,8.77
2022-08-12T04:37:25.728Z,8.18
2022-08-12T04:39:55.464Z,8.13
2022-08-12T04:42:25.862Z,7.95
2022-08-12T04:44:54.168Z,8.25
2022-08-12T04:47:24.362Z,8.35
2022-08-12T04:49:52.263Z,8.10
2022-08-12T04:52:20.039Z,7.97
2022-08-12T04:54:49.005Z,8.32
2022-08-12T04:57:17.310Z,7.95
2022-08-12T04:59:47.690Z,9.05
2022-08-12T05:04:52.214Z,8.60
2022-08-12T05:10:01.133Z,8.00
2022-08-12T05:12:41.482Z,8.00
2022-08-12T05:15:19.152Z,7.90
2022-08-12T05:17:56.154Z,8.05
2022-08-12T05:20:28.447Z,8.23
2022-08-12T05:23:13.613Z,7.80
2022-08-12T05:25:45.891Z,8.57
2022-08-12T05:28:16.708Z,7.85
2022-08-12T05:30:45.961Z,8.50
2022-08-12T05:33:15.681Z,8.88
2022-08-12T05:35:45.733Z,8.53
2022-08-12T05:38:34.810Z,8.40
2022-08-12T05:41:04.788Z,9.18
2022-08-12T05:43:35.775Z,8.80
2022-08-12T05:46:04.245Z,8.70
2022-08-12T05:48:35.735Z,8.88
2022-08-12T05:51:04.297Z,8.65
2022-08-12T05:53:32.273Z,7.97
2022-08-12T05:56:00.021Z,8.30
2022-08-12T05:58:28.404Z,8.65
2022-08-12T06:00:57.714Z,8.63
2022-08-12T06:03:25.636Z,8.32
2022-08-12T06:05:57.185Z,8.90
2022-08-12T06:08:26.386Z,8.85
2022-08-12T06:10:57.210Z,8.90
2022-08-12T06:13:52.649Z,7.97
2022-08-12T06:16:18.962Z,9.50
2022-08-12T06:18:47.835Z,8.30
2022-08-12T06:21:21.639Z,9.43
2022-08-12T06:23:50.695Z,9.13
2022-08-12T06:26:20.685Z,9.00
2022-08-12T06:28:51.069Z,8.50
2022-08-12T06:31:26.366Z,9.48
2022-08-12T06:34:52.937Z,9.00
2022-08-12T06:36:45.121Z,8.75
2022-08-12T06:39:15.293Z,8.73
2022-08-12T06:44:51.069Z,8.40
2022-08-12T06:47:19.728Z,9.50
2022-08-12T06:49:49.528Z,10.05
2022-08-12T06:52:17.415Z,9.73
2022-08-12T06:54:45.813Z,10.27
2022-08-12T06:58:05.702Z,9.50
2022-08-12T07:00:03.009Z,8.52
2022-08-12T07:02:36.343Z,8.55
2022-08-12T07:05:05.936Z,8.65
2022-08-12T07:07:33.800Z,9.30
2022-08-12T07:10:07.644Z,9.60
2022-08-12T07:12:38.657Z,9.23
2022-08-12T07:15:07.561Z,8.70
2022-08-12T07:17:38.334Z,8.18
2022-08-12T07:20:35.979Z,7.70
2022-08-12T07:23:03.915Z,7.78
2022-08-12T07:25:41.229Z,6.57
2022-08-12T07:28:16.197Z,7.90
2022-08-12T07:30:46.714Z,7.30
2022-08-12T07:33:17.019Z,7.85
2022-08-12T07:35:47.950Z,7.65
2022-08-12T07:41:02.205Z,7.50
2022-08-12T07:43:33.327Z,7.30
2022-08-12T07:46:04.535Z,7.53
2022-08-12T07:48:44.617Z,7.90
2022-08-12T07:51:25.498Z,8.32
2022-08-12T07:56:31.727Z,8.35
2022-08-12T07:59:03.093Z,8.13
2022-08-12T08:04:19.514Z,8.65
2022-08-12T08:06:48.674Z,8.25
2022-08-12T08:09:19.318Z,7.95
2022-08-12T08:12:05.638Z,7.33
2022-08-12T08:14:37.035Z,8.30
2022-08-12T08:17:06.659Z,8.20
2022-08-12T08:19:48.717Z,8.57
2022-08-12T08:22:48.850Z,8.45
2022-08-12T08:25:34.429Z,9.10
2022-08-12T08:28:08.534Z,8.90
2022-08-12T08:30:39.074Z,7.85
2022-08-12T08:33:22.897Z,8.52
2022-08-12T08:35:51.219Z,8.35
2022-08-12T08:38:32.705Z,7.70
2022-08-12T08:42:16.662Z,7.90
2022-08-12T08:44:14.441Z,8.02
2022-08-12T08:46:44.483Z,7.25
2022-08-12T08:51:42.692Z,6.57
2022-08-12T08:54:14.139Z,7.32
2022-08-12T08:56:50.204Z,7.53
2022-08-12T08:59:19.687Z,6.47
2022-08-12T09:01:48.413Z,6.07
2022-08-12T09:05:07.916Z,6.60
2022-08-12T09:07:16.933Z,6.53
2022-08-12T09:12:55.079Z,6.88
2022-08-12T09:15:35.860Z,6.50
2022-08-12T09:18:08.824Z,6.57
2022-08-12T09:20:39.419Z,7.03
2022-08-12T09:26:03.966Z,6.72
2022-08-12T09:28:37.221Z,7.93
2022-08-12T09:32:02.955Z,6.78
2022-08-12T09:34:27.307Z,6.85
2022-08-12T09:36:57.817Z,5.95
2022-08-12T09:40:04.998Z,6.40
2022-08-12T09:42:43.979Z,5.93
2022-08-12T09:46:20.094Z,6.35
2022-08-12T09:48:20.307Z,8.70
2022-08-12T09:50:55.145Z,8.00
2022-08-12T09:53:36.028Z,6.60
2022-08-12T09:56:57.371Z,7.05
2022-08-12T09:59:01.778Z,6.78
2022-08-12T10:01:35.759Z,6.97
2022-08-12T10:04:20.747Z,6.80
2022-08-12T10:06:55.615Z,7.22
2022-08-12T10:09:56.890Z,7.75
2022-08-12T10:12:33.539Z,6.93
2022-08-12T10:16:02.528Z,8.00
2022-08-12T10:18:08.995Z,7.05
2022-08-12T10:20:38.246Z,7.65
2022-08-12T10:23:08.674Z,7.32
2022-08-12T10:26:37.086Z,7.00
2022-08-12T10:30:01.885Z,8.30
2022-08-12T10:32:20.654Z,7.25
2022-08-12T10:34:53.812Z,7.30
2022-08-12T10:38:35.041Z,7.55
2022-08-12T10:40:20.415Z,7.50
2022-08-12T10:43:08.538Z,7.20
2022-08-12T10:45:38.415Z,7.88
2022-08-12T10:48:21.948Z,7.90
2022-08-12T10:51:02.562Z,7.13
2022-08-12T10:53:45.908Z,7.38
2022-08-12T10:56:19.059Z,7.40
2022-08-12T10:58:50.460Z,7.55
2022-08-12T11:04:15.130Z,7.20
2022-08-12T11:04:23.265Z,7.88
2022-08-12T11:07:08.653Z,6.90
2022-08-12T11:10:00.204Z,7.25
2022-08-12T11:12:56.298Z,7.20
2022-08-12T11:15:32.801Z,7.00
2022-08-12T11:18:18.750Z,7.00
2022-08-12T11:20:48.252Z,7.15
2022-08-12T11:23:25.003Z,6.85
2022-08-12T11:26:07.230Z,7.03
2022-08-12T11:28:38.082Z,6.65
2022-08-12T11:31:10.054Z,6.32
2022-08-12T11:34:04.320Z,7.32
2022-08-12T11:36:32.483Z,7.20
2022-08-12T11:39:07.721Z,7.22
2022-08-12T11:41:43.151Z,7.43
2022-08-12T11:44:35.155Z,6.90
2022-08-12T11:47:00.722Z,6.40
2022-08-12T11:49:31.850Z,6.32
2022-08-12T11:52:01.967Z,7.07
2022-08-12T11:54:31.134Z,7.82
2022-08-12T11:57:02.058Z,9.05
2022-08-12T12:04:53.860Z,6.03
2022-08-12T12:08:38.648Z,6.30
2022-08-12T12:10:13.095Z,6.10
2022-08-12T12:15:25.322Z,5.55
2022-08-12T12:18:05.925Z,5.68
2022-08-12T12:20:34.984Z,6.47
2022-08-12T12:23:04.627Z,5.93
2022-08-12T12:28:36.838Z,6.07
2022-08-12T12:31:15.269Z,5.80
2022-08-12T12:33:58.297Z,5.53
2022-08-12T12:36:30.029Z,5.07
2022-08-12T12:39:00.196Z,5.32
2022-08-12T12:42:43.676Z,5.13
2022-08-12T12:44:26.164Z,5.30
2022-08-12T12:47:28.705Z,5.78
2022-08-12T12:49:56.082Z,5.30
2022-08-12T12:52:26.963Z,5.45
2022-08-12T12:54:55.791Z,5.65
2022-08-12T12:57:59.215Z,5.43
2022-08-12T13:00:17.830Z,5.63
2022-08-12T13:02:52.873Z,5.30
2022-08-12T13:05:29.183Z,5.75
2022-08-12T13:08:00.819Z,6.00
2022-08-12T13:10:36.925Z,5.20
2022-08-12T13:14:07.844Z,5.35
2022-08-12T13:15:59.029Z,5.40
2022-08-12T13:18:36.928Z,5.80
2022-08-12T13:22:21.610Z,5.93
2022-08-12T13:24:56.259Z,5.63
2022-08-12T13:27:35.516Z,6.15
2022-08-12T13:30:13.061Z,5.53
2022-08-12T13:32:56.760Z,5.85
2022-08-12T13:36:03.092Z,5.97
2022-08-12T13:38:15.086Z,5.82
2022-08-12T13:40:58.589Z,5.53
2022-08-12T13:43:39.326Z,5.05
2022-08-12T13:46:13.888Z,5.65
2022-08-12T13:48:45.122Z,5.32
2022-08-12T13:51:14.833Z,5.60
2022-08-12T13:53:59.130Z,6.07
2022-08-12T13:56:34.938Z,5.53
2022-08-12T13:59:07.769Z,6.75
2022-08-12T14:01:40.670Z,6.68
2022-08-12T14:04:12.433Z,7.93
2022-08-12T14:06:44.845Z,5.97
2022-08-12T14:09:17.384Z,6.18
2022-08-12T14:11:58.518Z,6.03
2022-08-12T14:14:35.587Z,6.15
2022-08-12T14:17:10.387Z,5.97
2022-08-12T14:20:00.640Z,5.82
2022-08-12T14:22:30.313Z,6.30
2022-08-12T14:25:00.474Z,5.30
2022-08-12T14:28:03.359Z,5.35
2022-08-12T14:30:29.457Z,5.50
2022-08-12T14:32:58.095Z,5.60
2022-08-12T14:35:27.532Z,5.32
2022-08-12T14:37:59.151Z,5.60
2022-08-12T14:40:29.552Z,5.68
2022-08-12T14:43:02.748Z,5.32
2022-08-12T14:45:44.299Z,5.60
2022-08-12T14:48:18.580Z,5.05
2022-08-12T14:51:30.392Z,4.72
2022-08-12T14:59:56.358Z,6.15
2022-08-12T15:02:29.622Z,6.40
2022-08-12T15:05:03.360Z,6.22
2022-08-12T15:07:34.433Z,5.80
2022-08-12T15:10:25.031Z,5.68
2022-08-12T15:12:54.522Z,5.13
2022-08-12T15:15:22.587Z,5.53
2022-08-12T15:17:52.427Z,5.85
2022-08-12T15:20:37.422Z,5.90
2022-08-12T15:23:17.516Z,5.97
2022-08-12T15:26:02.552Z,5.65
2022-08-12T15:28:34.360Z,5.63
2022-08-12T15:31:09.605Z,5.63
2022-08-12T15:33:52.751Z,5.65
2022-08-12T15:36:50.217Z,5.88
2022-08-12T15:41:49.732Z,5.45
2022-08-12T15:44:41.580Z,5.88
2022-08-12T15:47:08.874Z,5.78
2022-08-12T15:49:43.183Z,6.32
2022-08-12T15:52:29.496Z,6.28
2022-08-12T15:55:05.847Z,6.10
2022-08-12T15:57:41.570Z,6.00
2022-08-12T16:00:31.714Z,5.85
2022-08-12T16:03:01.828Z,5.70
2022-08-12T16:06:11.281Z,5.90
2022-08-12T16:08:27.883Z,5.93
2022-08-12T16:10:56.972Z,6.40
2022-08-12T16:13:34.291Z,5.43
2022-08-12T16:16:22.716Z,5.15
2022-08-12T16:18:59.488Z,5.55
2022-08-12T16:21:51.677Z,5.40
2022-08-12T16:24:19.363Z,5.30
2022-08-12T16:28:47.234Z,5.97
2022-08-12T16:31:23.225Z,5.32
2022-08-12T16:33:56.770Z,5.30
2022-08-12T16:36:30.208Z,7.28
2022-08-12T16:39:01.652Z,7.38
2022-08-12T16:41:39.482Z,5.85
2022-08-12T16:44:09.271Z,7.82
2022-08-12T16:46:38.015Z,10.70
2022-08-12T16:49:13.528Z,7.90
2022-08-12T16:51:46.286Z,6.40
2022-08-12T16:54:17.058Z,5.90
2022-08-12T16:56:55.320Z,6.50
2022-08-12T16:59:31.086Z,6.38
2022-08-12T17:02:31.240Z,6.25
2022-08-12T17:04:59.983Z,6.22
2022-08-12T17:07:43.549Z,6.55
2022-08-12T17:10:35.958Z,6.68
2022-08-12T17:13:09.809Z,5.97
2022-08-12T17:15:56.741Z,6.82
2022-08-12T17:18:43.219Z,6.80
2022-08-12T17:21:17.483Z,8.20
2022-08-12T17:23:53.174Z,6.00
2022-08-12T17:26:30.891Z,6.60
2022-08-12T17:29:00.079Z,6.75
2022-08-12T17:32:01.124Z,8.70
2022-08-12T17:34:36.272Z,6.13
2022-08-12T17:37:08.929Z,12.93
2022-08-12T17:40:10.116Z,12.75
2022-08-12T17:42:35.069Z,6.13
2022-08-12T17:48:00.009Z,8.52
2022-08-12T17:50:38.866Z,6.60
2022-08-12T17:53:10.081Z,5.97
2022-08-12T17:55:47.556Z,5.57
2022-08-12T17:58:36.951Z,6.30
2022-08-12T18:01:10.961Z,5.60
2022-08-12T18:04:04.446Z,9.23
2022-08-12T18:06:34.567Z,7.25
2022-08-12T18:09:09.569Z,7.47
2022-08-12T18:12:06.646Z,5.97
2022-08-12T18:14:40.957Z,5.57
2022-08-12T18:17:10.122Z,6.80
2022-08-12T18:20:06.007Z,7.13
2022-08-12T18:22:31.805Z,12.65
2022-08-12T18:25:05.712Z,6.00
2022-08-12T18:27:44.815Z,10.20
2022-08-12T18:30:29.388Z,7.70
2022-08-12T18:33:03.405Z,5.50
2022-08-12T18:35:47.926Z,9.15
2022-08-12T18:38:25.759Z,5.13
2022-08-12T18:41:20.908Z,6.20
2022-08-12T18:44:00.011Z,5.80
2022-08-12T18:46:42.838Z,6.28
2022-08-12T18:49:17.626Z,6.13
2022-08-12T18:51:55.475Z,10.18
2022-08-12T18:54:35.650Z,7.15
2022-08-12T18:57:16.775Z,14.65
2022-08-12T19:00:02.335Z,19.15
2022-08-12T19:02:39.880Z,26.48
2022-08-12T19:05:14.289Z,5.78
2022-08-12T19:07:58.071Z,6.13
2022-08-12T19:10:32.552Z,6.57
2022-08-12T19:15:54.822Z,11.63
2022-08-12T19:18:29.218Z,9.88
2022-08-12T19:21:06.503Z,21.48
2022-08-12T19:23:40.701Z,11.88
2022-08-12T19:26:12.696Z,6.15
2022-08-12T19:28:41.438Z,11.25
2022-08-12T19:31:44.724Z,11.88
2022-08-12T19:37:38.753Z,8.20
2022-08-12T19:40:20.534Z,9.63
2022-08-12T19:43:20.222Z,7.30
2022-08-12T19:45:56.217Z,9.13
2022-08-12T19:48:30.325Z,6.38
2022-08-12T19:50:58.937Z,5.70
2022-08-12T19:53:40.470Z,6.47
2022-08-12T19:56:25.349Z,7.25
2022-08-12T19:59:18.781Z,6.05
2022-08-12T20:02:02.835Z,6.30
2022-08-12T20:04:37.715Z,9.93
2022-08-12T20:07:09.211Z,11.90
2022-08-12T20:09:54.250Z,17.73
2022-08-12T20:12:30.952Z,7.38
2022-08-12T20:15:05.266Z,6.55
2022-08-12T20:17:36.278Z,7.10
2022-08-12T20:20:28.177Z,6.85
2022-08-12T20:22:57.676Z,7.47
2022-08-12T20:25:53.482Z,6.20
2022-08-12T20:28:18.655Z,5.80
2022-08-12T20:30:53.255Z,13.77
2022-08-12T20:33:32.826Z,50.35
2022-08-12T20:36:42.213Z,28.15
2022-08-12T20:39:17.866Z,27.63
2022-08-12T20:42:00.086Z,10.35
2022-08-12T20:44:28.766Z,13.68
2022-08-12T20:47:17.837Z,36.60
2022-08-12T20:49:55.750Z,20.80
2022-08-12T20:55:15.854Z,28.85
2022-08-12T20:58:01.906Z,26.83
2022-08-12T21:00:31.142Z,15.82
2022-08-12T21:03:19.615Z,17.58
2022-08-12T21:06:23.334Z,12.13
2022-08-12T21:08:56.394Z,10.40
2022-08-12T21:11:25.388Z,11.00
2022-08-12T21:13:59.124Z,16.02
2022-08-12T21:17:33.970Z,29.15
2022-08-12T21:20:22.674Z,10.73
2022-08-12T21:22:51.632Z,8.30
2022-08-12T21:25:19.840Z,8.07
2022-08-12T21:27:58.932Z,7.97
2022-08-12T21:30:37.380Z,8.43
2022-08-12T21:33:10.763Z,8.93
2022-08-12T21:35:45.040Z,9.10
2022-08-12T21:38:24.040Z,7.95
2022-08-12T21:40:58.597Z,7.15
2022-08-12T21:43:26.368Z,7.95
2022-08-12T21:46:07.300Z,7.67
2022-08-12T21:48:43.484Z,17.35
2022-08-12T21:51:22.982Z,9.18
2022-08-12T21:54:07.074Z,8.20
2022-08-12T21:56:37.746Z,14.60
2022-08-12T21:59:07.347Z,10.73
2022-08-12T22:01:50.023Z,7.18
2022-08-12T22:04:36.777Z,7.85
2022-08-12T22:07:06.252Z,8.27
2022-08-12T22:09:42.622Z,8.55
2022-08-12T22:12:29.847Z,8.52
2022-08-12T22:14:58.312Z,7.85
2022-08-12T22:19:49.670Z,8.60
2022-08-12T22:22:18.765Z,8.80
2022-08-12T22:24:47.673Z,9.48
2022-08-12T22:27:31.847Z,8.52
2022-08-12T22:30:19.807Z,8.85
2022-08-12T22:32:50.771Z,8.50
2022-08-12T22:35:47.579Z,9.98
2022-08-12T22:38:24.142Z,8.83
2022-08-12T22:40:56.216Z,9.75
2022-08-12T22:46:53.181Z,10.13
2022-08-12T22:49:49.081Z,9.95
2022-08-12T22:52:18.507Z,10.75
2022-08-12T22:55:02.606Z,10.00
2022-08-12T22:57:49.736Z,10.82
2022-08-12T23:00:23.920Z,10.18
2022-08-12T23:03:03.207Z,9.60
2022-08-12T23:05:57.354Z,11.00
2022-08-12T23:08:29.724Z,11.90
2022-08-12T23:11:06.066Z,12.15
2022-08-12T23:13:46.342Z,11.40
2022-08-12T23:16:18.239Z,11.35
2022-08-12T23:19:10.626Z,12.02
2022-08-12T23:22:05.621Z,9.07
2022-08-12T23:24:53.998Z,8.70
2022-08-12T23:27:50.811Z,11.07
2022-08-12T23:30:31.570Z,9.77
2022-08-12T23:33:20.377Z,10.15
2022-08-12T23:36:03.223Z,10.43
2022-08-12T23:38:33.446Z,10.45
2022-08-12T23:41:03.944Z,10.13
2022-08-12T23:43:39.076Z,12.45
2022-08-12T23:46:10.915Z,14.18
2022-08-12T23:48:40.115Z,12.52
2022-08-12T23:51:23.560Z,12.23
2022-08-12T23:53:56.237Z,11.90
2022-08-12T23:56:25.478Z,12.75
2022-08-12T23:58:55.319Z,10.40
